Time;durP1;ratioP1;P1;durP2;ratioP2;P2;SDS_P1;SDS_P2;PMS_P1;PMS_P2;Temp;Humidity;BMP_temperature;BMP_pressure;BME280_temperature;BME280_humidity;BME280_pressure;Samples;Min_cycle;Max_cycle;Signal;HPM_P1;HPM_P2
2022/10/21 00:01:12;;;;;;;22.50;16.27;;;14.80;99.90;;;;;;5021277;28;20025;-91
2022/10/21 00:03:38;;;;;;;21.23;15.40;;;14.90;99.90;;;;;;5014141;28;20076;-90
2022/10/21 00:06:04;;;;;;;20.13;15.50;;;14.90;99.90;;;;;;5020863;28;20025;-90
2022/10/21 00:08:30;;;;;;;25.30;15.77;;;14.90;99.90;;;;;;5015178;28;20045;-90
2022/10/21 00:10:59;;;;;;;22.02;15.05;;;14.90;99.90;;;;;;5050954;28;20352;-91
2022/10/21 00:13:26;;;;;;;20.98;14.82;;;14.90;99.90;;;;;;5034387;28;20043;-90
2022/10/21 00:16:00;;;;;;;23.20;16.17;;;14.90;99.90;;;;;;5041797;28;20029;-90
2022/10/21 00:18:26;;;;;;;24.23;16.17;;;14.90;99.90;;;;;;5042205;28;20021;-92
2022/10/21 00:20:52;;;;;;;25.17;15.73;;;14.90;99.90;;;;;;5017865;28;20030;-91
2022/10/21 00:23:18;;;;;;;23.58;15.88;;;14.90;99.90;;;;;;5040072;28;20060;-92
2022/10/21 00:25:43;;;;;;;24.83;17.02;;;15.00;99.90;;;;;;5004687;28;20057;-91
2022/10/21 00:28:09;;;;;;;29.10;18.92;;;15.00;99.90;;;;;;5035310;28;20043;-91
2022/10/21 00:30:35;;;;;;;23.55;15.80;;;15.00;99.90;;;;;;5025373;28;20044;-89
2022/10/21 00:33:00;;;;;;;22.35;16.17;;;15.00;99.90;;;;;;4999975;28;20046;-90
2022/10/21 00:35:26;;;;;;;24.13;16.90;;;15.00;99.90;;;;;;5037030;28;20041;-90
2022/10/21 00:37:51;;;;;;;22.35;16.67;;;15.00;99.90;;;;;;5033795;28;20044;-90
2022/10/21 00:40:17;;;;;;;25.73;17.85;;;15.00;99.90;;;;;;5017047;28;20387;-91
2022/10/21 00:42:43;;;;;;;22.73;16.23;;;15.00;99.90;;;;;;5037173;28;20018;-90
2022/10/21 00:45:14;;;;;;;24.80;16.45;;;15.00;99.90;;;;;;5023202;28;20033;-87
2022/10/21 00:47:45;;;;;;;23.15;15.73;;;15.00;99.90;;;;;;5040461;28;20017;-87
2022/10/21 00:50:26;;;;;;;22.05;16.23;;;15.00;99.90;;;;;;5039241;28;20045;-87
2022/10/21 00:52:53;;;;;;;32.08;19.15;;;15.00;99.90;;;;;;5039950;28;20033;-88
2022/10/21 00:55:20;;;;;;;26.75;17.02;;;15.00;99.90;;;;;;5023226;28;20032;-87
2022/10/21 00:57:46;;;;;;;24.55;17.55;;;15.00;99.90;;;;;;5023586;28;20024;-92
2022/10/21 01:00:12;;;;;;;25.52;17.67;;;15.00;99.90;;;;;;5049593;28;20029;-91
2022/10/21 01:02:38;;;;;;;23.02;16.05;;;15.00;99.90;;;;;;5040735;28;20021;-91
2022/10/21 01:05:05;;;;;;;23.25;16.70;;;15.00;99.90;;;;;;5040402;28;20036;-92
2022/10/21 01:07:37;;;;;;;29.45;17.75;;;15.00;99.90;;;;;;5003927;28;20027;-87
2022/10/21 01:10:04;;;;;;;22.67;16.17;;;15.10;99.90;;;;;;5015629;28;20071;-87
2022/10/21 01:13:01;;;;;;;23.60;17.13;;;15.10;99.90;;;;;;5039382;28;20040;-87
2022/10/21 01:15:40;;;;;;;25.90;17.88;;;15.10;99.90;;;;;;5053381;28;20120;-87
2022/10/21 01:18:34;;;;;;;24.98;17.35;;;15.10;99.90;;;;;;5038459;28;20036;-86
2022/10/21 01:21:21;;;;;;;23.92;15.95;;;15.10;99.90;;;;;;5051105;28;20195;-87
2022/10/21 01:23:50;;;;;;;28.70;16.83;;;15.10;99.90;;;;;;5056985;28;20120;-87
2022/10/21 01:26:49;;;;;;;24.75;16.15;;;15.10;99.90;;;;;;5056776;28;20025;-87
2022/10/21 01:29:32;;;;;;;28.63;17.65;;;15.00;99.90;;;;;;4979572;28;20199;-87
2022/10/21 01:32:21;;;;;;;24.83;16.83;;;15.10;99.90;;;;;;5036897;28;20025;-88
2022/10/21 01:35:10;;;;;;;26.77;16.35;;;15.10;99.90;;;;;;5027717;28;20029;-86
2022/10/21 01:37:48;;;;;;;24.85;16.60;;;15.00;99.90;;;;;;5039855;28;20021;-90
2022/10/21 01:40:24;;;;;;;32.38;17.30;;;15.00;99.90;;;;;;5039390;28;20022;-90
2022/10/21 01:43:02;;;;;;;27.60;17.33;;;15.00;99.90;;;;;;5030343;28;20057;-89
2022/10/21 01:45:42;;;;;;;28.25;20.15;;;15.00;99.90;;;;;;5041210;28;20497;-89
2022/10/21 01:48:14;;;;;;;25.88;17.88;;;15.00;99.90;;;;;;5025809;28;20112;-89
2022/10/21 01:50:52;;;;;;;25.15;18.20;;;15.00;99.90;;;;;;5039460;28;20035;-89
2022/10/21 01:53:22;;;;;;;26.50;17.23;;;15.00;99.90;;;;;;5026851;28;20021;-90
2022/10/21 01:55:49;;;;;;;26.05;18.38;;;15.00;99.90;;;;;;5040322;28;20013;-89
2022/10/21 01:58:22;;;;;;;33.80;19.52;;;15.00;99.90;;;;;;5008179;28;20036;-90
2022/10/21 02:00:49;;;;;;;28.98;18.60;;;15.00;99.90;;;;;;5038935;28;20032;-88
2022/10/21 02:03:24;;;;;;;26.52;18.23;;;15.00;99.90;;;;;;5039400;28;20036;-88
2022/10/21 02:05:49;;;;;;;29.65;19.50;;;15.00;99.90;;;;;;5040847;28;20163;-88
2022/10/21 02:08:15;;;;;;;25.70;18.35;;;15.00;99.90;;;;;;5024043;28;20063;-89
2022/10/21 02:10:44;;;;;;;29.20;19.42;;;15.00;99.90;;;;;;5019955;28;20056;-89
2022/10/21 02:13:17;;;;;;;28.15;18.48;;;15.00;99.90;;;;;;5038630;28;20033;-89
2022/10/21 02:15:43;;;;;;;28.25;17.50;;;15.00;99.90;;;;;;5038919;28;20112;-90
2022/10/21 02:18:21;;;;;;;26.20;18.92;;;15.00;99.90;;;;;;5009105;28;20036;-90
2022/10/21 02:20:51;;;;;;;30.70;19.73;;;15.00;99.90;;;;;;5040127;28;20447;-90
2022/10/21 02:23:22;;;;;;;29.75;18.67;;;15.00;99.90;;;;;;5038964;28;20028;-87
2022/10/21 02:25:50;;;;;;;28.55;18.33;;;15.00;99.90;;;;;;5037647;28;20047;-87
2022/10/21 02:28:16;;;;;;;25.40;18.58;;;15.00;99.90;;;;;;5039079;22;20104;-83
2022/10/21 02:30:56;;;;;;;31.17;18.85;;;15.00;99.90;;;;;;4997024;28;20045;-83
2022/10/21 02:33:37;;;;;;;26.98;19.30;;;14.90;99.90;;;;;;5014242;28;20080;-82
2022/10/21 02:36:06;;;;;;;29.27;19.00;;;15.00;99.90;;;;;;5002202;28;20101;-82
2022/10/21 02:38:53;;;;;;;28.90;19.42;;;15.00;99.90;;;;;;4996823;28;20068;-83
2022/10/21 02:41:22;;;;;;;29.40;18.75;;;14.90;99.90;;;;;;4997049;28;20073;-83
2022/10/21 02:43:51;;;;;;;27.35;18.67;;;15.00;99.90;;;;;;4996730;28;20026;-82
2022/10/21 02:46:17;;;;;;;28.90;17.98;;;14.90;99.90;;;;;;4996885;28;20068;-83
2022/10/21 02:48:45;;;;;;;24.77;17.83;;;14.90;99.90;;;;;;5014468;28;20057;-83
2022/10/21 02:51:11;;;;;;;25.10;16.27;;;14.90;99.90;;;;;;4996571;28;20475;-83
2022/10/21 02:53:37;;;;;;;25.80;16.88;;;14.90;99.90;;;;;;5014375;28;20064;-83
2022/10/21 02:56:03;;;;;;;27.90;19.15;;;14.90;99.90;;;;;;4980259;28;20018;-83
2022/10/21 02:58:29;;;;;;;29.77;17.63;;;14.90;99.90;;;;;;4996707;28;20491;-83
2022/10/21 03:00:55;;;;;;;25.70;17.95;;;14.90;99.90;;;;;;4996697;28;20030;-82
2022/10/21 03:03:20;;;;;;;25.15;17.45;;;14.90;99.90;;;;;;4980351;28;20040;-83
2022/10/21 03:05:46;;;;;;;26.55;17.50;;;14.90;99.90;;;;;;4980378;28;20037;-82
2022/10/21 03:08:12;;;;;;;26.80;17.95;;;14.90;99.90;;;;;;4980386;28;20030;-82
2022/10/21 03:10:38;;;;;;;22.25;16.25;;;14.90;99.90;;;;;;4999229;28;20026;-82
2022/10/21 03:13:03;;;;;;;23.73;15.98;;;14.80;99.90;;;;;;4984556;28;20379;-82
2022/10/21 03:15:29;;;;;;;25.38;15.93;;;14.80;99.90;;;;;;4984357;28;20147;-82
2022/10/21 03:17:55;;;;;;;21.95;14.95;;;14.80;99.90;;;;;;4984610;28;20121;-82
2022/10/21 03:20:20;;;;;;;22.27;16.90;;;14.80;99.90;;;;;;4983306;28;20069;-82
2022/10/21 03:22:46;;;;;;;21.92;16.10;;;14.80;99.90;;;;;;4998989;28;20134;-82
2022/10/21 03:25:12;;;;;;;23.63;16.10;;;14.70;99.90;;;;;;4998093;28;20049;-83
2022/10/21 03:27:38;;;;;;;24.92;16.75;;;14.80;99.90;;;;;;4981217;28;20065;-83
2022/10/21 03:30:05;;;;;;;24.30;16.30;;;14.70;99.90;;;;;;5016011;28;20037;-83
2022/10/21 03:32:31;;;;;;;24.25;16.10;;;14.70;99.90;;;;;;4996667;28;20030;-83
2022/10/21 03:34:56;;;;;;;22.77;15.93;;;14.70;99.90;;;;;;4993501;28;20028;-83
2022/10/21 03:37:22;;;;;;;27.15;15.48;;;14.70;99.90;;;;;;4997108;28;20472;-82
2022/10/21 03:39:47;;;;;;;22.70;16.25;;;14.70;99.90;;;;;;4997326;28;20026;-82
2022/10/21 03:42:13;;;;;;;24.45;16.85;;;14.70;99.90;;;;;;5030508;28;20045;-83
2022/10/21 03:44:39;;;;;;;24.65;16.52;;;14.70;99.90;;;;;;5029416;28;20029;-83
2022/10/21 03:47:05;;;;;;;24.38;15.48;;;14.60;99.90;;;;;;5027609;28;20036;-83
2022/10/21 03:49:31;;;;;;;22.00;15.70;;;14.70;99.90;;;;;;5044815;28;20395;-83
2022/10/21 03:51:57;;;;;;;23.30;15.45;;;14.70;99.90;;;;;;5015828;28;20493;-83
2022/10/21 03:54:22;;;;;;;22.38;15.88;;;14.60;99.90;;;;;;5007657;28;20025;-83
2022/10/21 03:56:48;;;;;;;23.30;15.82;;;14.70;99.90;;;;;;5005605;28;20512;-83
2022/10/21 03:59:13;;;;;;;24.13;15.80;;;14.60;99.90;;;;;;5020701;28;20474;-83
2022/10/21 04:01:39;;;;;;;22.40;16.17;;;14.60;99.90;;;;;;5022631;28;20479;-83
2022/10/21 04:04:05;;;;;;;22.80;15.40;;;14.60;99.90;;;;;;5039734;28;20036;-83
2022/10/21 04:06:30;;;;;;;29.10;17.40;;;14.60;99.90;;;;;;5039587;28;20030;-83
2022/10/21 04:08:56;;;;;;;23.40;15.65;;;14.60;99.90;;;;;;5021924;28;20030;-83
2022/10/21 04:11:22;;;;;;;23.05;15.40;;;14.60;99.90;;;;;;5005949;28;20034;-82
2022/10/21 04:13:47;;;;;;;24.40;16.13;;;14.60;99.90;;;;;;5039589;28;20029;-82
2022/10/21 04:16:16;;;;;;;25.55;15.90;;;14.60;99.90;;;;;;5021936;28;20037;-82
2022/10/21 04:18:42;;;;;;;24.80;15.60;;;14.60;99.90;;;;;;5021614;28;20029;-82
2022/10/21 04:21:07;;;;;;;25.90;15.18;;;14.50;99.90;;;;;;5039943;28;20025;-81
2022/10/21 04:23:34;;;;;;;23.60;15.20;;;14.50;99.90;;;;;;5004869;28;20029;-80
2022/10/21 04:26:00;;;;;;;26.52;16.25;;;14.50;99.90;;;;;;5038474;28;20110;-80
2022/10/21 04:28:25;;;;;;;24.27;15.55;;;14.50;99.90;;;;;;5024524;28;20103;-81
2022/10/21 04:30:51;;;;;;;25.83;15.77;;;14.50;99.90;;;;;;5021650;28;20045;-81
2022/10/21 04:33:17;;;;;;;21.23;14.60;;;14.50;99.90;;;;;;5021655;28;20025;-81
2022/10/21 04:35:43;;;;;;;25.00;15.43;;;14.50;99.90;;;;;;5021774;28;20028;-81
2022/10/21 04:38:08;;;;;;;22.80;15.18;;;14.50;99.90;;;;;;5021686;28;20061;-81
2022/10/21 04:40:34;;;;;;;26.90;16.42;;;14.50;99.90;;;;;;5021579;28;20566;-81
2022/10/21 04:43:00;;;;;;;19.63;14.30;;;14.50;99.90;;;;;;5021628;28;20021;-80
2022/10/21 04:45:26;;;;;;;23.02;15.18;;;14.50;99.90;;;;;;5005366;28;20374;-80
2022/10/21 04:47:51;;;;;;;21.30;14.15;;;14.50;99.90;;;;;;5022729;28;20083;-81
2022/10/21 04:50:17;;;;;;;21.65;15.35;;;14.50;99.90;;;;;;5002285;28;20032;-81
2022/10/21 04:52:43;;;;;;;21.80;14.65;;;14.50;99.90;;;;;;5038034;28;20021;-81
2022/10/21 04:55:08;;;;;;;19.10;14.00;;;14.50;99.90;;;;;;5005305;28;20052;-81
2022/10/21 04:57:34;;;;;;;21.67;14.55;;;14.50;99.90;;;;;;5017003;28;20522;-81
2022/10/21 05:00:00;;;;;;;23.67;14.45;;;14.50;99.90;;;;;;5018536;28;20109;-81
2022/10/21 05:02:26;;;;;;;22.20;14.52;;;14.40;99.90;;;;;;5000190;28;20060;-81
2022/10/21 05:04:51;;;;;;;21.80;14.30;;;14.50;99.90;;;;;;5001861;28;20044;-81
2022/10/21 05:07:17;;;;;;;20.65;14.05;;;14.50;99.90;;;;;;5017182;28;20517;-80
2022/10/21 05:09:43;;;;;;;21.08;14.82;;;14.40;99.90;;;;;;5009935;28;20419;-80
2022/10/21 05:12:08;;;;;;;22.80;14.65;;;14.40;99.90;;;;;;5016084;28;20033;-81
2022/10/21 05:14:34;;;;;;;25.08;14.10;;;14.40;99.90;;;;;;5015196;28;20086;-80
2022/10/21 05:17:00;;;;;;;21.88;14.65;;;14.40;99.90;;;;;;5017019;28;20025;-80
2022/10/21 05:19:25;;;;;;;21.10;14.13;;;14.40;99.90;;;;;;5017858;28;20025;-81
2022/10/21 05:21:51;;;;;;;20.00;14.07;;;14.40;99.90;;;;;;5001703;28;20128;-81
2022/10/21 05:24:17;;;;;;;23.35;14.23;;;14.40;99.90;;;;;;5013879;28;20029;-81
2022/10/21 05:26:43;;;;;;;22.90;13.85;;;14.40;99.90;;;;;;4988276;28;20022;-80
2022/10/21 05:29:09;;;;;;;20.70;15.05;;;14.30;99.90;;;;;;5018627;28;20774;-81
2022/10/21 05:31:35;;;;;;;19.02;13.30;;;14.30;99.90;;;;;;5002003;28;20121;-81
2022/10/21 05:34:00;;;;;;;21.17;13.73;;;14.30;99.90;;;;;;5018054;28;20112;-81
2022/10/21 05:36:26;;;;;;;24.27;14.20;;;14.30;99.90;;;;;;5003181;28;20018;-80
2022/10/21 05:38:52;;;;;;;19.02;13.13;;;14.30;99.90;;;;;;5018009;28;20424;-80
2022/10/21 05:41:18;;;;;;;19.55;13.10;;;14.30;99.90;;;;;;5017960;28;20025;-80
2022/10/21 05:43:44;;;;;;;19.63;14.02;;;14.20;99.90;;;;;;4983085;28;20075;-81
2022/10/21 05:46:09;;;;;;;20.35;13.05;;;14.20;99.90;;;;;;5012720;28;20033;-80
2022/10/21 05:48:36;;;;;;;19.33;13.07;;;14.20;99.90;;;;;;5031326;28;20495;-81
2022/10/21 05:51:02;;;;;;;17.00;13.05;;;14.10;99.90;;;;;;5018429;28;20383;-81
2022/10/21 05:53:28;;;;;;;19.23;13.02;;;14.20;99.90;;;;;;5035076;28;20037;-81
2022/10/21 05:55:59;;;;;;;19.05;13.23;;;14.10;99.90;;;;;;5017328;28;20017;-81
2022/10/21 05:58:26;;;;;;;;;;;14.10;99.90;;;;;;5035198;28;20009;-81
2022/10/21 06:00:55;;;;;;;20.63;12.80;;;14.10;99.90;;;;;;5017655;28;19935;-81
2022/10/21 06:03:22;;;;;;;19.02;12.50;;;14.10;99.90;;;;;;5035276;28;20029;-81
2022/10/21 06:05:49;;;;;;;17.35;12.88;;;14.00;99.90;;;;;;5034889;28;20467;-82
2022/10/21 06:08:15;;;;;;;19.52;12.63;;;14.00;99.90;;;;;;5034898;28;20033;-81
2022/10/21 06:10:40;;;;;;;17.73;12.15;;;14.00;99.90;;;;;;5018347;28;20075;-82
2022/10/21 06:13:06;;;;;;;16.50;11.85;;;14.00;99.90;;;;;;5036284;28;20018;-82
2022/10/21 06:15:32;;;;;;;16.95;11.77;;;13.90;99.90;;;;;;5017586;28;20036;-81
2022/10/21 06:17:57;;;;;;;16.85;12.05;;;14.00;99.90;;;;;;5017741;28;20040;-81
2022/10/21 06:20:23;;;;;;;21.23;12.85;;;14.00;99.90;;;;;;5017185;28;20079;-81
2022/10/21 06:22:48;;;;;;;20.38;12.43;;;13.90;99.90;;;;;;5001432;28;20435;-81
2022/10/21 06:25:14;;;;;;;17.58;12.32;;;13.90;99.90;;;;;;5018176;28;20120;-81
2022/10/21 06:27:40;;;;;;;16.98;12.63;;;13.90;99.90;;;;;;5001708;28;20489;-82
2022/10/21 06:30:06;;;;;;;18.13;12.73;;;13.90;99.90;;;;;;5025628;28;20513;-81
2022/10/21 06:32:32;;;;;;;17.67;12.68;;;13.90;99.90;;;;;;5000379;28;20145;-82
2022/10/21 06:34:57;;;;;;;20.63;12.82;;;13.90;99.90;;;;;;5022535;28;20475;-82
2022/10/21 06:37:23;;;;;;;19.77;13.13;;;13.90;99.90;;;;;;5005283;28;20022;-81
2022/10/21 06:39:49;;;;;;;19.05;13.27;;;13.90;99.90;;;;;;5000225;28;20490;-82
2022/10/21 06:42:14;;;;;;;20.13;13.48;;;13.90;99.90;;;;;;5000175;28;20124;-81
2022/10/21 06:44:40;;;;;;;20.88;13.05;;;13.90;99.90;;;;;;5000010;28;20517;-81
2022/10/21 06:47:06;;;;;;;18.45;13.00;;;13.90;99.90;;;;;;5008944;28;20386;-81
2022/10/21 06:49:32;;;;;;;19.05;13.57;;;13.90;99.90;;;;;;5016181;28;20125;-81
2022/10/21 06:51:58;;;;;;;16.75;12.73;;;13.90;99.90;;;;;;5033970;28;20104;-82
2022/10/21 06:54:25;;;;;;;17.90;11.57;;;13.90;99.90;;;;;;5015992;28;20398;-81
2022/10/21 06:56:51;;;;;;;19.85;11.88;;;13.90;99.90;;;;;;5016156;28;20088;-81
2022/10/21 06:59:17;;;;;;;16.60;11.38;;;13.90;99.90;;;;;;5022685;28;20055;-81
2022/10/21 07:01:42;;;;;;;18.65;12.90;;;13.90;99.90;;;;;;5033641;28;20025;-82
2022/10/21 07:04:09;;;;;;;15.35;11.98;;;13.90;99.90;;;;;;5008310;28;20049;-82
2022/10/21 07:06:35;;;;;;;17.38;12.55;;;14.00;99.90;;;;;;5033647;28;20100;-81
2022/10/21 07:09:02;;;;;;;19.65;12.05;;;14.00;99.90;;;;;;5015918;28;20025;-82
2022/10/21 07:11:28;;;;;;;18.05;11.40;;;14.00;99.90;;;;;;5024280;28;20048;-82
2022/10/21 07:13:54;;;;;;;17.77;11.60;;;14.00;99.90;;;;;;4999275;28;20463;-81
2022/10/21 07:16:29;;;;;;;19.08;12.38;;;14.00;99.90;;;;;;5033528;28;20034;-82
2022/10/21 07:18:55;;;;;;;20.67;12.52;;;14.00;99.90;;;;;;5033690;28;20032;-81
2022/10/21 07:21:22;;;;;;;16.25;11.57;;;14.10;99.90;;;;;;5032952;28;20033;-82
2022/10/21 07:23:50;;;;;;;20.80;12.02;;;14.10;99.90;;;;;;5015462;28;20022;-82
2022/10/21 07:26:22;;;;;;;18.88;12.43;;;14.10;99.90;;;;;;5033360;28;20328;-82
2022/10/21 07:28:49;;;;;;;18.75;13.07;;;14.10;99.90;;;;;;5015170;28;20187;-82
2022/10/21 07:31:16;;;;;;;17.00;11.85;;;14.10;99.90;;;;;;5028671;28;20076;-82
2022/10/21 07:33:42;;;;;;;18.17;12.27;;;14.10;99.90;;;;;;4995797;28;20041;-82
2022/10/21 07:36:20;;;;;;;17.60;12.50;;;14.20;99.90;;;;;;5013954;28;20021;-82
2022/10/21 07:38:48;;;;;;;19.77;12.65;;;14.20;99.90;;;;;;5032315;28;20024;-82
2022/10/21 07:41:19;;;;;;;19.08;12.27;;;14.20;99.90;;;;;;5014323;28;20037;-82
2022/10/21 07:43:45;;;;;;;21.83;13.63;;;14.20;99.90;;;;;;5032882;28;20092;-82
2022/10/21 07:46:11;;;;;;;19.88;13.88;;;14.20;99.90;;;;;;5010578;28;20100;-80
2022/10/21 07:48:37;;;;;;;19.35;12.32;;;14.30;99.90;;;;;;5012527;28;20040;-81
2022/10/21 07:51:04;;;;;;;19.40;13.27;;;14.30;99.90;;;;;;4994457;28;20121;-80
2022/10/21 07:53:30;;;;;;;20.13;11.48;;;14.30;99.90;;;;;;4985381;28;20108;-81
2022/10/21 07:56:08;;;;;;;20.58;12.10;;;14.30;99.90;;;;;;5009135;28;20116;-81
2022/10/21 07:58:34;;;;;;;19.55;11.82;;;14.30;99.90;;;;;;5013882;28;20076;-81
2022/10/21 08:01:01;;;;;;;20.25;12.05;;;14.30;99.90;;;;;;4998608;28;20666;-81
2022/10/21 08:03:27;;;;;;;23.33;11.95;;;14.30;99.90;;;;;;5012583;28;20112;-80
2022/10/21 08:05:54;;;;;;;15.63;10.80;;;14.40;99.90;;;;;;5014529;28;20387;-81
2022/10/21 08:08:22;;;;;;;20.98;12.55;;;14.40;99.90;;;;;;5032687;28;20139;-81
2022/10/21 08:10:50;;;;;;;20.90;11.27;;;14.40;99.90;;;;;;5007536;28;20025;-81
2022/10/21 08:13:16;;;;;;;18.00;11.55;;;14.40;99.90;;;;;;5014857;28;20055;-81
2022/10/21 08:15:48;;;;;;;17.33;11.63;;;14.50;99.90;;;;;;4997120;28;20026;-81
2022/10/21 08:18:14;;;;;;;15.13;11.27;;;14.50;99.90;;;;;;5013878;28;20403;-81
2022/10/21 08:20:44;;;;;;;15.95;10.93;;;14.50;99.90;;;;;;5032115;28;20471;-83
2022/10/21 08:23:11;;;;;;;14.82;10.75;;;14.60;99.90;;;;;;5032399;28;20475;-82
2022/10/21 08:25:38;;;;;;;15.00;10.80;;;14.60;99.90;;;;;;5014359;28;20064;-82
2022/10/21 08:28:05;;;;;;;18.92;11.27;;;14.60;99.90;;;;;;5006805;28;20128;-83
2022/10/21 08:30:31;;;;;;;19.58;10.48;;;14.60;99.90;;;;;;5031797;28;20088;-82
2022/10/21 08:32:58;;;;;;;13.70;10.05;;;14.60;99.90;;;;;;5016395;28;20036;-82
2022/10/21 08:35:27;;;;;;;15.00;10.60;;;14.70;99.90;;;;;;5018157;28;20087;-81
2022/10/21 08:37:53;;;;;;;15.93;9.60;;;14.70;99.90;;;;;;5018263;28;20039;-81
2022/10/21 08:40:20;;;;;;;12.25;9.07;;;14.70;99.90;;;;;;5016076;28;20018;-81
2022/10/21 08:42:46;;;;;;;15.90;9.88;;;14.70;99.90;;;;;;5017910;28;20029;-81
2022/10/21 08:45:52;;;;;;;17.80;10.98;;;14.80;99.90;;;;;;5035717;28;20112;-81
2022/10/21 08:48:24;;;;;;;13.10;8.88;;;14.80;99.90;;;;;;4931118;29;20030;-82
2022/10/21 08:50:51;;;;;;;13.07;8.98;;;14.90;99.90;;;;;;5004802;28;20163;-81
2022/10/21 08:53:31;;;;;;;14.88;8.98;;;14.90;99.90;;;;;;5014569;28;20018;-82
2022/10/21 08:56:02;;;;;;;14.63;9.18;;;14.90;99.90;;;;;;5015810;28;20033;-81
2022/10/21 08:58:28;;;;;;;11.57;8.02;;;15.00;99.90;;;;;;5032259;28;20030;-81
2022/10/21 09:01:00;;;;;;;15.82;9.40;;;15.00;99.90;;;;;;5015320;28;20050;-82
2022/10/21 09:03:58;;;;;;;13.57;9.10;;;15.00;99.90;;;;;;5034694;28;20524;-83
2022/10/21 09:06:38;;;;;;;16.25;8.50;;;15.00;99.90;;;;;;4980937;28;20045;-82
2022/10/21 09:09:19;;;;;;;12.75;8.80;;;15.00;99.90;;;;;;5030090;28;20021;-83
2022/10/21 09:11:48;;;;;;;13.52;8.63;;;15.10;99.90;;;;;;5017875;28;20022;-83
2022/10/21 09:14:38;;;;;;;14.45;9.23;;;15.10;99.90;;;;;;5004662;28;20028;-83
2022/10/21 09:17:17;;;;;;;17.35;9.73;;;15.10;99.90;;;;;;5037529;28;20360;-83
2022/10/21 09:20:05;;;;;;;15.20;10.23;;;15.20;99.90;;;;;;5017931;28;20027;-82
2022/10/21 09:22:50;;;;;;;14.35;9.20;;;15.20;99.90;;;;;;5036454;28;20017;-83
2022/10/21 09:25:29;;;;;;;17.30;9.70;;;15.20;99.90;;;;;;5035675;28;20029;-82
2022/10/21 09:27:55;;;;;;;16.13;9.65;;;15.20;99.90;;;;;;5021558;28;20051;-82
2022/10/21 09:30:22;;;;;;;18.45;9.43;;;15.20;99.90;;;;;;5035315;28;20538;-81
2022/10/21 09:32:50;;;;;;;13.30;8.75;;;15.30;99.90;;;;;;5017367;28;20033;-81
2022/10/21 09:35:52;;;;;;;19.45;9.35;;;15.30;99.90;;;;;;5035374;28;20104;-82
2022/10/21 09:38:18;;;;;;;15.05;8.25;;;15.40;99.90;;;;;;4991016;28;20044;-82
2022/10/21 09:40:46;;;;;;;12.60;7.90;;;15.40;99.90;;;;;;5017281;28;20025;-83
2022/10/21 09:43:22;;;;;;;15.50;8.68;;;15.40;99.90;;;;;;5016927;28;20029;-83
2022/10/21 09:45:48;;;;;;;12.18;7.13;;;15.40;99.90;;;;;;5015598;28;20018;-82
2022/10/21 09:48:16;;;;;;;11.25;6.57;;;15.50;99.90;;;;;;5009133;28;20093;-82
2022/10/21 09:50:44;;;;;;;13.00;6.13;;;15.50;99.90;;;;;;5028193;28;20025;-82
2022/10/21 09:53:37;;;;;;;10.43;5.80;;;15.60;99.90;;;;;;5003322;28;20025;-81
2022/10/21 09:56:28;;;;;;;11.18;6.35;;;15.60;99.90;;;;;;5016031;28;20033;-81
2022/10/21 09:59:08;;;;;;;13.73;6.15;;;15.60;99.90;;;;;;5035080;28;20032;-81
2022/10/21 10:01:35;;;;;;;13.50;6.45;;;15.60;99.90;;;;;;5016997;28;20084;-81
2022/10/21 10:04:29;;;;;;;15.85;7.18;;;15.70;99.90;;;;;;5034664;28;20030;-81
2022/10/21 10:06:57;;;;;;;15.27;7.38;;;15.70;99.90;;;;;;5012262;28;20033;-81
2022/10/21 10:09:35;;;;;;;12.48;7.38;;;15.70;99.90;;;;;;5034477;28;20395;-81
2022/10/21 10:12:16;;;;;;;11.50;7.82;;;15.80;99.90;;;;;;5031022;28;20026;-81
2022/10/21 10:14:43;;;;;;;16.03;8.10;;;15.80;99.90;;;;;;5034830;28;20014;-81
2022/10/21 10:17:35;;;;;;;17.60;8.32;;;15.70;99.90;;;;;;5016832;28;20261;-81
2022/10/21 10:20:07;;;;;;;18.80;9.07;;;15.80;99.90;;;;;;5016802;28;20055;-81
2022/10/21 10:22:40;;;;;;;18.40;8.90;;;15.80;99.90;;;;;;5029459;28;20026;-81
2022/10/21 10:25:17;;;;;;;14.68;8.05;;;15.80;99.90;;;;;;5016451;28;20490;-81
2022/10/21 10:27:55;;;;;;;12.25;8.02;;;15.90;99.90;;;;;;5016582;28;20049;-81
2022/10/21 10:30:22;;;;;;;14.75;8.23;;;15.90;99.90;;;;;;5013693;28;20140;-81
2022/10/21 10:32:51;;;;;;;17.05;9.07;;;15.90;99.90;;;;;;5016774;28;20387;-81
2022/10/21 10:35:32;;;;;;;13.80;8.48;;;15.90;99.90;;;;;;5028417;28;20033;-81
2022/10/21 10:38:01;;;;;;;11.27;7.55;;;16.00;99.90;;;;;;5030688;28;20358;-81
2022/10/21 10:40:40;;;;;;;15.90;8.02;;;16.00;99.90;;;;;;5033448;28;20022;-81
2022/10/21 10:43:14;;;;;;;20.73;8.60;;;16.00;99.90;;;;;;5033168;28;20025;-80
2022/10/21 10:45:56;;;;;;;14.57;8.10;;;16.10;99.90;;;;;;5012031;28;20044;-82
2022/10/21 10:48:33;;;;;;;14.70;8.50;;;16.10;99.90;;;;;;5014811;28;20028;-81
2022/10/21 10:50:59;;;;;;;16.00;8.18;;;16.10;99.90;;;;;;5016095;28;20033;-81
2022/10/21 10:53:36;;;;;;;13.52;8.55;;;16.10;99.90;;;;;;5016100;28;20529;-81
2022/10/21 10:56:19;;;;;;;17.67;8.63;;;16.20;99.90;;;;;;5015318;28;20056;-81
2022/10/21 10:58:58;;;;;;;13.05;8.60;;;16.20;99.90;;;;;;5005315;28;20352;-81
2022/10/21 11:01:29;;;;;;;15.02;8.70;;;16.20;99.90;;;;;;5015827;28;20455;-81
2022/10/21 11:04:31;;;;;;;15.88;9.35;;;16.20;99.90;;;;;;5005739;28;20022;-82
2022/10/21 11:07:22;;;;;;;15.35;8.40;;;16.30;99.90;;;;;;5028039;28;20068;-82
2022/10/21 11:09:51;;;;;;;13.82;8.10;;;16.20;99.90;;;;;;4963466;28;20046;-81
2022/10/21 11:12:25;;;;;;;17.88;8.98;;;16.30;99.90;;;;;;5015597;28;20076;-81
2022/10/21 11:14:53;;;;;;;15.63;8.25;;;16.30;99.90;;;;;;5025824;28;20052;-81
2022/10/21 11:17:28;;;;;;;13.00;8.20;;;16.20;99.90;;;;;;5033203;28;20017;-81
2022/10/21 11:20:18;;;;;;;17.77;9.80;;;16.30;99.90;;;;;;5033421;28;20021;-81
2022/10/21 11:23:14;;;;;;;15.25;10.32;;;16.30;99.90;;;;;;5014947;28;20030;-81
2022/10/21 11:25:50;;;;;;;16.60;10.15;;;16.30;99.90;;;;;;5033320;28;20036;-81
2022/10/21 11:28:28;;;;;;;13.93;10.05;;;16.30;99.90;;;;;;5026913;28;20040;-81
2022/10/21 11:31:10;;;;;;;13.82;10.25;;;16.30;99.90;;;;;;5011497;28;20125;-81
2022/10/21 11:34:18;;;;;;;15.20;9.63;;;16.30;99.90;;;;;;5033057;28;20017;-81
2022/10/21 11:36:53;;;;;;;14.40;9.48;;;16.40;99.90;;;;;;4980113;28;20537;-82
2022/10/21 11:39:21;;;;;;;16.50;10.32;;;16.40;99.90;;;;;;5015072;28;20167;-82
2022/10/21 11:41:54;;;;;;;15.75;9.60;;;16.40;99.90;;;;;;5028221;28;20026;-81
2022/10/21 11:44:33;;;;;;;20.38;9.90;;;16.50;99.90;;;;;;5013759;28;20042;-81
2022/10/21 11:47:20;;;;;;;13.10;9.95;;;16.50;99.90;;;;;;5014968;28;20022;-81
2022/10/21 11:50:08;;;;;;;14.05;8.18;;;16.50;99.90;;;;;;5015100;28;20075;-81
2022/10/21 11:52:44;;;;;;;16.92;9.23;;;16.60;99.90;;;;;;5027316;28;20407;-81
2022/10/21 11:55:38;;;;;;;16.23;9.50;;;16.70;99.90;;;;;;5019391;28;20435;-81
2022/10/21 11:58:38;;;;;;;12.20;9.02;;;16.80;99.90;;;;;;5014322;28;20053;-81
2022/10/21 12:01:15;;;;;;;18.35;9.52;;;16.90;99.90;;;;;;5024936;28;20485;-81
2022/10/21 12:04:29;;;;;;;15.70;9.38;;;16.90;99.90;;;;;;5012088;28;20030;-81
2022/10/21 12:07:01;;;;;;;16.27;8.52;;;17.00;99.90;;;;;;4963701;28;20031;-80
2022/10/21 12:09:36;;;;;;;12.95;8.70;;;17.10;99.90;;;;;;5035719;28;20021;-81
2022/10/21 12:12:13;;;;;;;15.70;8.63;;;17.20;99.90;;;;;;5015103;28;20180;-81
2022/10/21 12:14:43;;;;;;;15.18;7.93;;;17.20;99.90;;;;;;5031667;28;20098;-81
2022/10/21 12:17:18;;;;;;;13.38;7.25;;;17.30;99.90;;;;;;5018538;28;20060;-81
2022/10/21 12:20:06;;;;;;;11.70;6.75;;;17.40;99.90;;;;;;5018928;28;20047;-81
2022/10/21 12:22:33;;;;;;;12.93;6.35;;;17.40;99.90;;;;;;5016782;28;20045;-81
2022/10/21 12:25:11;;;;;;;12.30;6.20;;;17.40;99.90;;;;;;5013351;28;20029;-81
2022/10/21 12:27:45;;;;;;;11.68;5.13;;;17.50;99.90;;;;;;5019015;28;20028;-81
2022/10/21 12:30:30;;;;;;;9.02;5.35;;;17.60;99.90;;;;;;5018594;28;20041;-81
2022/10/21 12:33:15;;;;;;;10.20;4.80;;;17.60;99.90;;;;;;5002761;28;20058;-81
2022/10/21 12:35:49;;;;;;;8.02;4.93;;;17.70;99.90;;;;;;5019092;28;20028;-80
2022/10/21 12:38:42;;;;;;;6.93;4.53;;;17.70;99.90;;;;;;5011071;28;20124;-81
2022/10/21 12:41:20;;;;;;;11.45;4.97;;;17.80;99.90;;;;;;5034578;28;20068;-80
2022/10/21 12:44:01;;;;;;;9.52;4.53;;;17.80;99.90;;;;;;5008545;28;20446;-81
2022/10/21 12:46:47;;;;;;;10.27;4.90;;;17.90;99.90;;;;;;5032012;28;20152;-81
2022/10/21 12:49:18;;;;;;;7.47;3.80;;;18.00;99.90;;;;;;5036317;28;20029;-81
2022/10/21 12:51:54;;;;;;;6.35;4.32;;;18.10;99.90;;;;;;5004426;28;20030;-81